Spring River (Missouri), La Russell (07185700)

StateMissouriLatestHigh (625 cfs)
RiverSpring RiverRatingObservedEstimated
Updated2020-04-07 20:30 (32 minutes ago)Flood - The river is flooding. Obstacles can be treacherous or deadly. The river should be avoided at this stage for casual trips and definitely for the inexperienced. Trips should be attempted only with protective gear and equipment.Flood(none)1127
Discharge625 cfs (median: 335 cfs)High - The river is high and potentially dangerous, especially for the young and / or inexperienced. Normal stream obstacles are sometimes difficult to navigate. Extended distances can be attempted, but canoe travel may not be advisable.High(none)263
Height3.04 feetGood - Conditions are ideal for a canoe or kayak. Boats typically will drag on fewer than one-quarter of riffles, if at all, and portages are unnecessary or rare. Normal float lengths can be attempted without a problem.Good(none)243
TrendFalling (falling over 24 hours)Low - River is low but can still be floated. Some riffles are okay but most come with significant dragging and might need a portage. Float lengths should be reduced to accommodate low flow, dragging, and portages.Low(none)151
USGSExternal icon USGS Site (External icon Google Maps)Poor - River is too low to float comfortably. Most or all riffles will drag or must be portaged and some obstacles (such as slick shelf rock) cause undue problems. Avoid the river at this stage for casual paddling trips.Poor(none)42

Trending Data

Plot Image

Trips for Spring River (Missouri), La Russell (07185700)

DateStartEndDistanceConditionDischargeHeightFishingDetails

A total of 0 rows are displayed.

Condition Descriptions

Fishing Conditions

Fish Species

Notes

Classic Trip List

The classic River Trips application is still available for use. It is updated with the new system using a data retrofit. It is no longer maintained. The original River Trips application is no longer updated (as of 1 Dec 2016) but can be checked for errors or for the condition of the data before it was converted to the new system.

Gauge Data Table

ObservationHeightDischargeMaximum
Discharge
Minimum
Discharge
Mean
Discharge
P05P10P20P25P50
(Median)
P75P80P90P95
2020-04-07 20:30 3.04 625 1430 (1965) 44 (1981) 360 61 67 135 149 335 503 539 688 913
2020-04-07 19:30 3.06 634 1430 (1965) 44 (1981) 360 61 67 135 149 335 503 539 688 913
2020-04-07 18:30 3.06 634 1430 (1965) 44 (1981) 360 61 67 135 149 335 503 539 688 913
2020-04-07 17:30 3.06 634 1430 (1965) 44 (1981) 360 61 67 135 149 335 503 539 688 913
2020-04-07 16:30 3.06 634 1430 (1965) 44 (1981) 360 61 67 135 149 335 503 539 688 913
2020-04-07 15:30 3.07 638 1430 (1965) 44 (1981) 360 61 67 135 149 335 503 539 688 913
2020-04-07 14:30 3.09 647 1430 (1965) 44 (1981) 360 61 67 135 149 335 503 539 688 913
2020-04-07 13:30 3.09 647 1430 (1965) 44 (1981) 360 61 67 135 149 335 503 539 688 913
2020-04-07 12:30 3.08 643 1430 (1965) 44 (1981) 360 61 67 135 149 335 503 539 688 913
2020-04-07 11:30 3.07 638 1430 (1965) 44 (1981) 360 61 67 135 149 335 503 539 688 913
2020-04-07 10:30 3.08 643 1430 (1965) 44 (1981) 360 61 67 135 149 335 503 539 688 913
2020-04-07 09:30 3.09 647 1430 (1965) 44 (1981) 360 61 67 135 149 335 503 539 688 913
2020-04-07 08:30 3.08 643 1430 (1965) 44 (1981) 360 61 67 135 149 335 503 539 688 913
2020-04-07 07:30 3.10 652 1430 (1965) 44 (1981) 360 61 67 135 149 335 503 539 688 913
2020-04-07 06:30 3.10 652 1430 (1965) 44 (1981) 360 61 67 135 149 335 503 539 688 913
2020-04-07 05:30 3.08 643 1430 (1965) 44 (1981) 360 61 67 135 149 335 503 539 688 913
2020-04-07 04:30 3.09 647 1430 (1965) 44 (1981) 360 61 67 135 149 335 503 539 688 913
2020-04-07 03:30 3.10 652 1430 (1965) 44 (1981) 360 61 67 135 149 335 503 539 688 913
2020-04-07 02:30 3.09 647 1430 (1965) 44 (1981) 360 61 67 135 149 335 503 539 688 913
2020-04-07 01:30 3.11 656 1430 (1965) 44 (1981) 360 61 67 135 149 335 503 539 688 913
2020-04-07 00:30 3.09 647 1430 (1965) 44 (1981) 360 61 67 135 149 335 503 539 688 913
2020-04-06 23:30 3.10 652 4480 (1965) 48 (1981) 471 62 70 139 148 360 550 580 746 1430
2020-04-06 22:30 3.12 660 4480 (1965) 48 (1981) 471 62 70 139 148 360 550 580 746 1430
2020-04-06 21:30 3.12 660 4480 (1965) 48 (1981) 471 62 70 139 148 360 550 580 746 1430
2020-04-06 20:30 3.11 656 4480 (1965) 48 (1981) 471 62 70 139 148 360 550 580 746 1430
2020-04-06 19:30 3.12 660 4480 (1965) 48 (1981) 471 62 70 139 148 360 550 580 746 1430
2020-04-06 18:30 3.12 660 4480 (1965) 48 (1981) 471 62 70 139 148 360 550 580 746 1430
2020-04-06 17:30 3.12 660 4480 (1965) 48 (1981) 471 62 70 139 148 360 550 580 746 1430
2020-04-06 16:30 3.13 665 4480 (1965) 48 (1981) 471 62 70 139 148 360 550 580 746 1430
2020-04-06 15:30 3.14 669 4480 (1965) 48 (1981) 471 62 70 139 148 360 550 580 746 1430
2020-04-06 14:30 3.13 665 4480 (1965) 48 (1981) 471 62 70 139 148 360 550 580 746 1430
2020-04-06 13:30 3.14 669 4480 (1965) 48 (1981) 471 62 70 139 148 360 550 580 746 1430
2020-04-06 12:30 3.15 674 4480 (1965) 48 (1981) 471 62 70 139 148 360 550 580 746 1430
2020-04-06 11:30 3.14 669 4480 (1965) 48 (1981) 471 62 70 139 148 360 550 580 746 1430
2020-04-06 10:30 3.15 674 4480 (1965) 48 (1981) 471 62 70 139 148 360 550 580 746 1430
2020-04-06 09:30 3.14 669 4480 (1965) 48 (1981) 471 62 70 139 148 360 550 580 746 1430
2020-04-06 08:30 3.16 678 4480 (1965) 48 (1981) 471 62 70 139 148 360 550 580 746 1430
2020-04-06 07:30 3.15 674 4480 (1965) 48 (1981) 471 62 70 139 148 360 550 580 746 1430
2020-04-06 06:30 3.15 674 4480 (1965) 48 (1981) 471 62 70 139 148 360 550 580 746 1430
2020-04-06 05:30 3.15 674 4480 (1965) 48 (1981) 471 62 70 139 148 360 550 580 746 1430
2020-04-06 04:30 3.15 674 4480 (1965) 48 (1981) 471 62 70 139 148 360 550 580 746 1430
2020-04-06 03:30 3.16 678 4480 (1965) 48 (1981) 471 62 70 139 148 360 550 580 746 1430
2020-04-06 02:30 3.15 674 4480 (1965) 48 (1981) 471 62 70 139 148 360 550 580 746 1430
2020-04-06 01:30 3.17 683 4480 (1965) 48 (1981) 471 62 70 139 148 360 550 580 746 1430
2020-04-06 00:30 3.17 683 4480 (1965) 48 (1981) 471 62 70 139 148 360 550 580 746 1430
2020-04-05 23:30 3.17 683 4190 (1965) 52 (1981) 517 63 71 142 154 383 586 621 978 2140
2020-04-05 22:30 3.19 692 4190 (1965) 52 (1981) 517 63 71 142 154 383 586 621 978 2140
2020-04-05 21:30 3.18 687 4190 (1965) 52 (1981) 517 63 71 142 154 383 586 621 978 2140
2020-04-05 20:30 3.19 692 4190 (1965) 52 (1981) 517 63 71 142 154 383 586 621 978 2140
2020-04-05 19:30 3.21 701 4190 (1965) 52 (1981) 517 63 71 142 154 383 586 621 978 2140
2020-04-05 18:30 3.20 696 4190 (1965) 52 (1981) 517 63 71 142 154 383 586 621 978 2140
2020-04-05 17:30 3.22 705 4190 (1965) 52 (1981) 517 63 71 142 154 383 586 621 978 2140
2020-04-05 16:30 3.20 696 4190 (1965) 52 (1981) 517 63 71 142 154 383 586 621 978 2140
2020-04-05 15:30 3.21 701 4190 (1965) 52 (1981) 517 63 71 142 154 383 586 621 978 2140
2020-04-05 14:30 3.21 701 4190 (1965) 52 (1981) 517 63 71 142 154 383 586 621 978 2140
2020-04-05 13:30 3.22 705 4190 (1965) 52 (1981) 517 63 71 142 154 383 586 621 978 2140
2020-04-05 12:30 3.22 705 4190 (1965) 52 (1981) 517 63 71 142 154 383 586 621 978 2140
2020-04-05 11:30 3.23 710 4190 (1965) 52 (1981) 517 63 71 142 154 383 586 621 978 2140
2020-04-05 10:30 3.24 714 4190 (1965) 52 (1981) 517 63 71 142 154 383 586 621 978 2140
2020-04-05 09:30 3.23 710 4190 (1965) 52 (1981) 517 63 71 142 154 383 586 621 978 2140
2020-04-05 08:30 3.27 728 4190 (1965) 52 (1981) 517 63 71 142 154 383 586 621 978 2140
2020-04-05 07:30 3.25 719 4190 (1965) 52 (1981) 517 63 71 142 154 383 586 621 978 2140
2020-04-05 06:30 3.25 719 4190 (1965) 52 (1981) 517 63 71 142 154 383 586 621 978 2140
2020-04-05 05:30 3.26 723 4190 (1965) 52 (1981) 517 63 71 142 154 383 586 621 978 2140
2020-04-05 04:30 3.28 733 4190 (1965) 52 (1981) 517 63 71 142 154 383 586 621 978 2140
2020-04-05 03:30 3.27 728 4190 (1965) 52 (1981) 517 63 71 142 154 383 586 621 978 2140
2020-04-05 02:30 3.26 723 4190 (1965) 52 (1981) 517 63 71 142 154 383 586 621 978 2140
2020-04-05 01:30 3.28 733 4190 (1965) 52 (1981) 517 63 71 142 154 383 586 621 978 2140
2020-04-05 00:30 3.28 733 4190 (1965) 52 (1981) 517 63 71 142 154 383 586 621 978 2140
2020-04-04 23:30 3.27 728 3170 (1965) 54 (1981) 502 64 71 147 157 337 636 673 943 2120
2020-04-04 22:30 3.31 747 3170 (1965) 54 (1981) 502 64 71 147 157 337 636 673 943 2120
2020-04-04 21:30 3.30 742 3170 (1965) 54 (1981) 502 64 71 147 157 337 636 673 943 2120
2020-04-04 20:30 3.30 742 3170 (1965) 54 (1981) 502 64 71 147 157 337 636 673 943 2120
2020-04-04 19:30 3.30 742 3170 (1965) 54 (1981) 502 64 71 147 157 337 636 673 943 2120
2020-04-04 18:30 3.31 747 3170 (1965) 54 (1981) 502 64 71 147 157 337 636 673 943 2120
2020-04-04 17:30 3.33 756 3170 (1965) 54 (1981) 502 64 71 147 157 337 636 673 943 2120
2020-04-04 16:30 3.31 747 3170 (1965) 54 (1981) 502 64 71 147 157 337 636 673 943 2120
2020-04-04 15:30 3.30 742 3170 (1965) 54 (1981) 502 64 71 147 157 337 636 673 943 2120
2020-04-04 14:30 3.33 756 3170 (1965) 54 (1981) 502 64 71 147 157 337 636 673 943 2120
2020-04-04 13:30 3.31 747 3170 (1965) 54 (1981) 502 64 71 147 157 337 636 673 943 2120
2020-04-04 12:30 3.32 751 3170 (1965) 54 (1981) 502 64 71 147 157 337 636 673 943 2120
2020-04-04 11:30 3.30 742 3170 (1965) 54 (1981) 502 64 71 147 157 337 636 673 943 2120
2020-04-04 10:30 3.29 737 3170 (1965) 54 (1981) 502 64 71 147 157 337 636 673 943 2120
2020-04-04 09:30 3.31 747 3170 (1965) 54 (1981) 502 64 71 147 157 337 636 673 943 2120
2020-04-04 08:30 3.30 742 3170 (1965) 54 (1981) 502 64 71 147 157 337 636 673 943 2120
2020-04-04 07:30 3.32 751 3170 (1965) 54 (1981) 502 64 71 147 157 337 636 673 943 2120
2020-04-04 06:30 3.31 747 3170 (1965) 54 (1981) 502 64 71 147 157 337 636 673 943 2120
2020-04-04 05:30 3.28 733 3170 (1965) 54 (1981) 502 64 71 147 157 337 636 673 943 2120
2020-04-04 04:30 3.27 728 3170 (1965) 54 (1981) 502 64 71 147 157 337 636 673 943 2120
2020-04-04 03:30 3.31 747 3170 (1965) 54 (1981) 502 64 71 147 157 337 636 673 943 2120
2020-04-04 02:30 3.29 737 3170 (1965) 54 (1981) 502 64 71 147 157 337 636 673 943 2120
2020-04-04 01:30 3.28 733 3170 (1965) 54 (1981) 502 64 71 147 157 337 636 673 943 2120
2020-04-04 00:30 3.28 733 3170 (1965) 54 (1981) 502 64 71 147 157 337 636 673 943 2120
2020-04-03 23:30 3.30 742 3380 (2015) 45 (1964) 521 52 72 138 159 355 585 712 1020 2590
2020-04-03 22:30 3.28 733 3380 (2015) 45 (1964) 521 52 72 138 159 355 585 712 1020 2590
2020-04-03 21:30 3.30 742 3380 (2015) 45 (1964) 521 52 72 138 159 355 585 712 1020 2590
2020-04-03 20:30 3.31 747 3380 (2015) 45 (1964) 521 52 72 138 159 355 585 712 1020 2590
2020-04-03 19:30 3.28 733 3380 (2015) 45 (1964) 521 52 72 138 159 355 585 712 1020 2590
2020-04-03 18:30 3.32 751 3380 (2015) 45 (1964) 521 52 72 138 159 355 585 712 1020 2590
2020-04-03 17:30 3.30 742 3380 (2015) 45 (1964) 521 52 72 138 159 355 585 712 1020 2590
2020-04-03 16:30 3.33 756 3380 (2015) 45 (1964) 521 52 72 138 159 355 585 712 1020 2590
2020-04-03 15:30 3.31 747 3380 (2015) 45 (1964) 521 52 72 138 159 355 585 712 1020 2590
2020-04-03 14:30 3.29 737 3380 (2015) 45 (1964) 521 52 72 138 159 355 585 712 1020 2590
2020-04-03 13:30 3.30 742 3380 (2015) 45 (1964) 521 52 72 138 159 355 585 712 1020 2590
2020-04-03 12:30 3.30 742 3380 (2015) 45 (1964) 521 52 72 138 159 355 585 712 1020 2590
2020-04-03 11:30 3.32 751 3380 (2015) 45 (1964) 521 52 72 138 159 355 585 712 1020 2590
2020-04-03 10:30 3.31 747 3380 (2015) 45 (1964) 521 52 72 138 159 355 585 712 1020 2590
2020-04-03 09:30 3.30 742 3380 (2015) 45 (1964) 521 52 72 138 159 355 585 712 1020 2590
2020-04-03 08:30 3.32 751 3380 (2015) 45 (1964) 521 52 72 138 159 355 585 712 1020 2590
2020-04-03 07:30 3.32 751 3380 (2015) 45 (1964) 521 52 72 138 159 355 585 712 1020 2590
2020-04-03 06:30 3.32 751 3380 (2015) 45 (1964) 521 52 72 138 159 355 585 712 1020 2590
2020-04-03 05:30 3.30 742 3380 (2015) 45 (1964) 521 52 72 138 159 355 585 712 1020 2590
2020-04-03 04:30 3.32 751 3380 (2015) 45 (1964) 521 52 72 138 159 355 585 712 1020 2590
2020-04-03 03:30 3.33 756 3380 (2015) 45 (1964) 521 52 72 138 159 355 585 712 1020 2590
2020-04-03 02:30 3.33 756 3380 (2015) 45 (1964) 521 52 72 138 159 355 585 712 1020 2590
2020-04-03 01:30 3.32 751 3380 (2015) 45 (1964) 521 52 72 138 159 355 585 712 1020 2590
2020-04-03 00:30 3.32 751 3380 (2015) 45 (1964) 521 52 72 138 159 355 585 712 1020 2590
2020-04-02 23:30 3.34 761 1450 (2008) 45 (1964) 414 54 72 142 163 322 610 671 795 1120
2020-04-02 22:30 3.35 765 1450 (2008) 45 (1964) 414 54 72 142 163 322 610 671 795 1120
2020-04-02 21:30 3.34 761 1450 (2008) 45 (1964) 414 54 72 142 163 322 610 671 795 1120
2020-04-02 20:30 3.33 756 1450 (2008) 45 (1964) 414 54 72 142 163 322 610 671 795 1120
2020-04-02 19:30 3.34 761 1450 (2008) 45 (1964) 414 54 72 142 163 322 610 671 795 1120
2020-04-02 18:30 3.33 756 1450 (2008) 45 (1964) 414 54 72 142 163 322 610 671 795 1120
2020-04-02 17:30 3.35 765 1450 (2008) 45 (1964) 414 54 72 142 163 322 610 671 795 1120
2020-04-02 16:30 3.36 770 1450 (2008) 45 (1964) 414 54 72 142 163 322 610 671 795 1120
2020-04-02 15:30 3.37 775 1450 (2008) 45 (1964) 414 54 72 142 163 322 610 671 795 1120
2020-04-02 14:30 3.38 780 1450 (2008) 45 (1964) 414 54 72 142 163 322 610 671 795 1120
2020-04-02 13:30 3.39 784 1450 (2008) 45 (1964) 414 54 72 142 163 322 610 671 795 1120
2020-04-02 12:30 3.37 775 1450 (2008) 45 (1964) 414 54 72 142 163 322 610 671 795 1120
2020-04-02 11:30 3.38 780 1450 (2008) 45 (1964) 414 54 72 142 163 322 610 671 795 1120
2020-04-02 10:30 3.38 780 1450 (2008) 45 (1964) 414 54 72 142 163 322 610 671 795 1120
2020-04-02 09:30 3.41 794 1450 (2008) 45 (1964) 414 54 72 142 163 322 610 671 795 1120
2020-04-02 08:30 3.40 789 1450 (2008) 45 (1964) 414 54 72 142 163 322 610 671 795 1120
2020-04-02 07:30 3.41 794 1450 (2008) 45 (1964) 414 54 72 142 163 322 610 671 795 1120
2020-04-02 06:30 3.42 799 1450 (2008) 45 (1964) 414 54 72 142 163 322 610 671 795 1120
2020-04-02 05:30 3.44 809 1450 (2008) 45 (1964) 414 54 72 142 163 322 610 671 795 1120
2020-04-02 04:30 3.42 799 1450 (2008) 45 (1964) 414 54 72 142 163 322 610 671 795 1120
2020-04-02 03:30 3.44 809 1450 (2008) 45 (1964) 414 54 72 142 163 322 610 671 795 1120
2020-04-02 02:30 3.45 813 1450 (2008) 45 (1964) 414 54 72 142 163 322 610 671 795 1120
2020-04-02 01:30 3.44 809 1450 (2008) 45 (1964) 414 54 72 142 163 322 610 671 795 1120
2020-04-02 00:30 3.47 823 1450 (2008) 45 (1964) 414 54 72 142 163 322 610 671 795 1120
2020-04-01 23:30 3.49 833 2700 (2008) 45 (1964) 469 55 74 134 158 347 620 731 850 1590
2020-04-01 22:30 3.51 842 2700 (2008) 45 (1964) 469 55 74 134 158 347 620 731 850 1590
2020-04-01 21:30 3.50 838 2700 (2008) 45 (1964) 469 55 74 134 158 347 620 731 850 1590
2020-04-01 20:30 3.50 838 2700 (2008) 45 (1964) 469 55 74 134 158 347 620 731 850 1590
2020-04-01 19:30 3.52 846 2700 (2008) 45 (1964) 469 55 74 134 158 347 620 731 850 1590
2020-04-01 18:30 3.52 846 2700 (2008) 45 (1964) 469 55 74 134 158 347 620 731 850 1590
2020-04-01 17:30 3.53 850 2700 (2008) 45 (1964) 469 55 74 134 158 347 620 731 850 1590
2020-04-01 16:30 3.55 859 2700 (2008) 45 (1964) 469 55 74 134 158 347 620 731 850 1590
2020-04-01 15:30 3.57 867 2700 (2008) 45 (1964) 469 55 74 134 158 347 620 731 850 1590
2020-04-01 14:30 3.56 863 2700 (2008) 45 (1964) 469 55 74 134 158 347 620 731 850 1590
2020-04-01 13:30 3.61 884 2700 (2008) 45 (1964) 469 55 74 134 158 347 620 731 850 1590
2020-04-01 12:30 3.59 875 2700 (2008) 45 (1964) 469 55 74 134 158 347 620 731 850 1590
2020-04-01 11:30 3.64 896 2700 (2008) 45 (1964) 469 55 74 134 158 347 620 731 850 1590
2020-04-01 10:30 3.64 896 2700 (2008) 45 (1964) 469 55 74 134 158 347 620 731 850 1590
2020-04-01 09:30 3.66 905 2700 (2008) 45 (1964) 469 55 74 134 158 347 620 731 850 1590
2020-04-01 08:30 3.70 922 2700 (2008) 45 (1964) 469 55 74 134 158 347 620 731 850 1590
2020-04-01 07:30 3.73 935 2700 (2008) 45 (1964) 469 55 74 134 158 347 620 731 850 1590
2020-04-01 06:30 3.77 953 2700 (2008) 45 (1964) 469 55 74 134 158 347 620 731 850 1590
2020-04-01 05:30 3.78 957 2700 (2008) 45 (1964) 469 55 74 134 158 347 620 731 850 1590
2020-04-01 04:30 3.80 966 2700 (2008) 45 (1964) 469 55 74 134 158 347 620 731 850 1590
2020-04-01 03:30 3.87 997 2700 (2008) 45 (1964) 469 55 74 134 158 347 620 731 850 1590
2020-04-01 02:30 3.93 1020 2700 (2008) 45 (1964) 469 55 74 134 158 347 620 731 850 1590
2020-04-01 01:30 3.93 1020 2700 (2008) 45 (1964) 469 55 74 134 158 347 620 731 850 1590
2020-04-01 00:30 3.99 1050 2700 (2008) 45 (1964) 469 55 74 134 158 347 620 731 850 1590
2020-03-31 23:30 4.02 1060 1870 (1973) 47 (1964) 465 56 77 141 160 335 615 758 1080 1600
2020-03-31 22:30 4.01 1060 1870 (1973) 47 (1964) 465 56 77 141 160 335 615 758 1080 1600
2020-03-31 21:30 3.96 1040 1870 (1973) 47 (1964) 465 56 77 141 160 335 615 758 1080 1600
2020-03-31 20:30 3.88 1000 1870 (1973) 47 (1964) 465 56 77 141 160 335 615 758 1080 1600
2020-03-31 19:30 3.91 1010 1870 (1973) 47 (1964) 465 56 77 141 160 335 615 758 1080 1600
2020-03-31 18:30 3.85 988 1870 (1973) 47 (1964) 465 56 77 141 160 335 615 758 1080 1600
2020-03-31 17:30 3.80 966 1870 (1973) 47 (1964) 465 56 77 141 160 335 615 758 1080 1600
2020-03-31 16:30 3.74 939 1870 (1973) 47 (1964) 465 56 77 141 160 335 615 758 1080 1600
2020-03-31 15:30 3.74 939 1870 (1973) 47 (1964) 465 56 77 141 160 335 615 758 1080 1600
2020-03-31 14:30 3.72 931 1870 (1973) 47 (1964) 465 56 77 141 160 335 615 758 1080 1600
2020-03-31 13:30 3.69 918 1870 (1973) 47 (1964) 465 56 77 141 160 335 615 758 1080 1600
2020-03-31 12:30 3.66 905 1870 (1973) 47 (1964) 465 56 77 141 160 335 615 758 1080 1600
2020-03-31 11:30 3.63 892 1870 (1973) 47 (1964) 465 56 77 141 160 335 615 758 1080 1600
2020-03-31 10:30 3.61 884 1870 (1973) 47 (1964) 465 56 77 141 160 335 615 758 1080 1600
2020-03-31 09:30 3.60 880 1870 (1973) 47 (1964) 465 56 77 141 160 335 615 758 1080 1600
2020-03-31 08:30 3.58 871 1870 (1973) 47 (1964) 465 56 77 141 160 335 615 758 1080 1600
2020-03-31 07:30 3.56 863 1870 (1973) 47 (1964) 465 56 77 141 160 335 615 758 1080 1600
2020-03-31 06:30 3.55 859 1870 (1973) 47 (1964) 465 56 77 141 160 335 615 758 1080 1600
2020-03-31 05:30 3.51 842 1870 (1973) 47 (1964) 465 56 77 141 160 335 615 758 1080 1600
2020-03-31 04:30 3.52 846 1870 (1973) 47 (1964) 465 56 77 141 160 335 615 758 1080 1600
2020-03-31 03:30 3.48 828 1870 (1973) 47 (1964) 465 56 77 141 160 335 615 758 1080 1600
2020-03-31 02:30 3.47 823 1870 (1973) 47 (1964) 465 56 77 141 160 335 615 758 1080 1600
2020-03-31 01:30 3.47 823 1870 (1973) 47 (1964) 465 56 77 141 160 335 615 758 1080 1600
2020-03-31 00:30 3.45 813 1870 (1973) 47 (1964) 465 56 77 141 160 335 615 758 1080 1600

A total of 189 rows are displayed for years 1958 through 2019.